ADDS METAR Data INFO
IDs: Format: Raw Decoded Include TAF

Data at: 0511 UTC 21 Feb 2018

KOKV 201515Z AUTO 22011G16KT 10SM CLR 17/11 A3035 RMK AO2
KOKV 201455Z AUTO 22010KT 10SM CLR 16/11 A3035 RMK AO2
KOKV 201435Z AUTO 23009KT 10SM CLR 16/11 A3035 RMK AO2
KOKV 201415Z AUTO 21006KT 10SM SCT070 15/11 A3035 RMK AO2
KOKV 201355Z AUTO 22009G14KT 10SM CLR 13/10 A3035 RMK AO2
KOKV 201335Z AUTO 23008G14KT 10SM CLR 13/10 A3035 RMK AO2
KOKV 201315Z AUTO 23008G14KT 10SM SCT070 12/10 A3035 RMK AO2
KOKV 201255Z AUTO 23008KT 10SM BKN070 11/09 A3035 RMK AO2
KOKV 201235Z AUTO 22008KT 10SM BKN070 11/09 A3034 RMK AO2
KOKV 201215Z AUTO 22008KT 10SM BKN070 11/09 A3033 RMK AO2
KOKV 201155Z AUTO 23006KT 10SM SCT070 10/09 A3033 RMK AO2
KOKV 201135Z AUTO 22006KT 10SM BKN070 10/09 A3033 RMK AO2
KOKV 201115Z AUTO 23008KT 10SM CLR 10/09 A3033 RMK AO2
KOKV 201055Z AUTO 23007KT 10SM CLR 10/09 A3032 RMK AO2
KOKV 201035Z AUTO 23009KT 10SM CLR 10/09 A3032 RMK AO2
KOKV 201015Z AUTO 23010KT 10SM CLR 11/09 A3031 RMK AO2
KOKV 200955Z AUTO 23009KT 10SM CLR 11/09 A3030 RMK AO2
KOKV 200935Z AUTO 23008KT 10SM CLR 11/09 A3030 RMK AO2
KOKV 200915Z AUTO 23008KT 10SM CLR 11/09 A3029 RMK AO2
KOKV 200855Z AUTO 23007KT 10SM CLR 11/09 A3028 RMK AO2
KOKV 200835Z AUTO 24007KT 10SM SCT070 11/09 A3028 RMK AO2
KOKV 200815Z AUTO 23006KT 10SM SCT070 11/09 A3028 RMK AO2
KOKV 200755Z AUTO 24006KT 10SM CLR 11/09 A3029 RMK AO2
KOKV 200735Z AUTO 21005KT 10SM CLR 11/08 A3029 RMK AO2
KOKV 200715Z AUTO 23006KT 10SM CLR 10/08 A3029 RMK AO2
KOKV 200655Z AUTO 22005KT 10SM CLR 10/08 A3029 RMK AO2
KOKV 200635Z AUTO 22006KT 10SM CLR 10/08 A3029 RMK AO2
KOKV 200615Z AUTO 21005KT 10SM CLR 10/08 A3029 RMK AO2
KOKV 200555Z AUTO 21005KT 10SM CLR 10/08 A3030 RMK AO2
KOKV 200535Z AUTO 21006KT 10SM CLR 10/08 A3030 RMK AO2
KOKV 200515Z AUTO 20004KT 10SM CLR 10/08 A3030 RMK AO2
KOKV 200455Z AUTO 22004KT 10SM CLR 10/08 A3030 RMK AO2
KOKV 200435Z AUTO 20004KT 10SM CLR 09/08 A3030 RMK AO2
KOKV 200415Z AUTO 22004KT 10SM CLR 08/07 A3030 RMK AO2
KOKV 200355Z AUTO 20003KT 10SM CLR 09/07 A3030 RMK AO2
KOKV 200335Z AUTO 20004KT 10SM SCT075 09/07 A3030 RMK AO2
KOKV 200315Z AUTO 20004KT 10SM BKN075 09/07 A3030 RMK AO2
KOKV 200255Z AUTO 18004KT 10SM BKN075 09/07 A3030 RMK AO2
KOKV 200235Z AUTO 18004KT 10SM CLR 08/07 A3030 RMK AO2
KOKV 200215Z AUTO 00000KT 10SM CLR 08/06 A3030 RMK AO2
KOKV 200155Z AUTO 00000KT 10SM CLR 07/06 A3030 RMK AO2
KOKV 200135Z AUTO 14003KT 10SM SCT080 07/06 A3029 RMK AO2
KOKV 200115Z AUTO 00000KT 10SM SCT080 08/06 A3030 RMK AO2
KOKV 200055Z AUTO 00000KT 10SM CLR 10/07 A3029 RMK AO2
KOKV 200035Z AUTO 16003KT 10SM CLR 10/07 A3029 RMK AO2
KOKV 200015Z AUTO 18004KT 10SM CLR 09/07 A3029 RMK AO2
KOKV 192355Z AUTO 15003KT 10SM CLR 09/06 A3029 RMK AO2
KOKV 192335Z AUTO 13003KT 10SM CLR 09/07 A3029 RMK AO2
KOKV 192315Z AUTO 14004KT 10SM CLR 11/07 A3028 RMK AO2
KOKV 192255Z AUTO 15004KT 10SM CLR 11/07 A3028 RMK AO2
KOKV 192235Z AUTO 13005KT 10SM CLR 11/07 A3028 RMK AO2
KOKV 192215Z AUTO 13006KT 10SM CLR 12/07 A3027 RMK AO2
KOKV 192155Z AUTO 14006KT 10SM CLR 13/08 A3027 RMK AO2
KOKV 192135Z AUTO 15008KT 10SM CLR 15/08 A3026 RMK AO2
KOKV 192115Z AUTO 13007KT 10SM CLR 15/08 A3026 RMK AO2
KOKV 192055Z AUTO 16006KT 10SM CLR 16/08 A3026 RMK AO2
KOKV 192035Z AUTO 14007KT 10SM CLR 15/08 A3026 RMK AO2
KOKV 192015Z AUTO 14005KT 10SM CLR 14/08 A3027 RMK AO2
KOKV 191955Z AUTO 14006KT 10SM CLR 14/07 A3027 RMK AO2
KOKV 191935Z AUTO 15008KT 10SM CLR 14/07 A3027 RMK AO2
KOKV 191915Z AUTO 16004KT 10SM CLR 13/07 A3028 RMK AO2
KOKV 191855Z AUTO 17008KT 10SM CLR 13/07 A3029 RMK AO2
KOKV 191835Z AUTO 13009KT 10SM CLR 12/06 A3030 RMK AO2
KOKV 191815Z AUTO 19005KT 10SM SCT090 12/06 A3032 RMK AO2
KOKV 191755Z AUTO 18007KT 10SM SCT090 SCT110 11/06 A3033 RMK AO2
KOKV 191735Z AUTO 17008KT 10SM BKN100 11/06 A3033 RMK AO2
KOKV 191715Z AUTO 17009KT 10SM SCT080 OVC110 09/05 A3035 RMK AO2